sensor_id;sensor_type;location;lat;lon;timestamp;P1;durP1;ratioP1;P2;durP2;ratioP2
54454;SDS011;40364;52.270;10.546;2024-01-10T00:00:59;20.30;;;6.85;;
54454;SDS011;40364;52.270;10.546;2024-01-10T00:03:25;16.80;;;7.28;;
54454;SDS011;40364;52.270;10.546;2024-01-10T00:05:53;19.75;;;7.32;;
54454;SDS011;40364;52.270;10.546;2024-01-10T00:08:20;17.60;;;7.75;;
54454;SDS011;40364;52.270;10.546;2024-01-10T00:10:47;19.48;;;9.15;;
54454;SDS011;40364;52.270;10.546;2024-01-10T00:13:14;20.02;;;7.88;;
54454;SDS011;40364;52.270;10.546;2024-01-10T00:15:41;18.27;;;6.93;;
54454;SDS011;40364;52.270;10.546;2024-01-10T00:18:07;22.40;;;7.93;;
54454;SDS011;40364;52.270;10.546;2024-01-10T00:20:34;20.42;;;7.82;;
54454;SDS011;40364;52.270;10.546;2024-01-10T00:23:02;22.15;;;7.30;;
54454;SDS011;40364;52.270;10.546;2024-01-10T00:25:29;20.05;;;7.97;;
54454;SDS011;40364;52.270;10.546;2024-01-10T00:27:55;23.40;;;8.75;;
54454;SDS011;40364;52.270;10.546;2024-01-10T00:30:22;20.83;;;7.85;;
54454;SDS011;40364;52.270;10.546;2024-01-10T00:32:49;23.85;;;8.85;;
54454;SDS011;40364;52.270;10.546;2024-01-10T00:35:16;24.10;;;8.48;;
54454;SDS011;40364;52.270;10.546;2024-01-10T00:37:43;20.65;;;8.07;;
54454;SDS011;40364;52.270;10.546;2024-01-10T00:40:11;18.92;;;7.97;;
54454;SDS011;40364;52.270;10.546;2024-01-10T00:42:38;19.95;;;8.05;;
54454;SDS011;40364;52.270;10.546;2024-01-10T00:45:05;19.90;;;8.43;;
54454;SDS011;40364;52.270;10.546;2024-01-10T00:47:32;21.38;;;8.68;;
54454;SDS011;40364;52.270;10.546;2024-01-10T00:49:58;21.40;;;8.32;;
54454;SDS011;40364;52.270;10.546;2024-01-10T00:52:25;17.80;;;7.18;;
54454;SDS011;40364;52.270;10.546;2024-01-10T00:54:51;22.58;;;8.05;;
54454;SDS011;40364;52.270;10.546;2024-01-10T00:57:20;23.02;;;8.40;;
54454;SDS011;40364;52.270;10.546;2024-01-10T01:03:05;21.85;;;7.68;;
54454;SDS011;40364;52.270;10.546;2024-01-10T01:05:32;27.48;;;8.55;;
54454;SDS011;40364;52.270;10.546;2024-01-10T01:07:59;22.92;;;8.68;;
54454;SDS011;40364;52.270;10.546;2024-01-10T01:10:26;23.15;;;8.30;;
54454;SDS011;40364;52.270;10.546;2024-01-10T01:12:54;19.77;;;8.63;;
54454;SDS011;40364;52.270;10.546;2024-01-10T01:15:21;22.20;;;8.55;;
54454;SDS011;40364;52.270;10.546;2024-01-10T01:17:48;21.23;;;8.15;;
54454;SDS011;40364;52.270;10.546;2024-01-10T01:20:14;20.92;;;8.82;;
54454;SDS011;40364;52.270;10.546;2024-01-10T01:22:41;21.77;;;8.07;;
54454;SDS011;40364;52.270;10.546;2024-01-10T01:25:08;21.95;;;8.00;;
54454;SDS011;40364;52.270;10.546;2024-01-10T01:27:35;24.45;;;8.85;;
54454;SDS011;40364;52.270;10.546;2024-01-10T01:30:03;24.10;;;8.10;;
54454;SDS011;40364;52.270;10.546;2024-01-10T01:32:30;21.27;;;8.50;;
54454;SDS011;40364;52.270;10.546;2024-01-10T01:34:57;17.40;;;7.50;;
54454;SDS011;40364;52.270;10.546;2024-01-10T01:37:24;22.58;;;7.78;;
54454;SDS011;40364;52.270;10.546;2024-01-10T01:39:50;26.40;;;8.90;;
54454;SDS011;40364;52.270;10.546;2024-01-10T01:42:17;20.25;;;8.40;;
54454;SDS011;40364;52.270;10.546;2024-01-10T01:44:44;32.58;;;10.20;;
54454;SDS011;40364;52.270;10.546;2024-01-10T01:47:12;21.95;;;8.40;;
54454;SDS011;40364;52.270;10.546;2024-01-10T01:49:39;24.25;;;9.32;;
54454;SDS011;40364;52.270;10.546;2024-01-10T01:52:07;28.08;;;8.30;;
54454;SDS011;40364;52.270;10.546;2024-01-10T01:54:34;34.42;;;9.25;;
54454;SDS011;40364;52.270;10.546;2024-01-10T01:57:01;20.17;;;8.07;;
54454;SDS011;40364;52.270;10.546;2024-01-10T01:59:28;27.85;;;10.10;;
54454;SDS011;40364;52.270;10.546;2024-01-10T02:01:55;22.40;;;10.02;;
54454;SDS011;40364;52.270;10.546;2024-01-10T02:04:25;26.45;;;9.52;;
54454;SDS011;40364;52.270;10.546;2024-01-10T02:06:52;20.92;;;7.78;;
54454;SDS011;40364;52.270;10.546;2024-01-10T02:09:18;18.65;;;8.18;;
54454;SDS011;40364;52.270;10.546;2024-01-10T02:11:45;25.33;;;8.00;;
54454;SDS011;40364;52.270;10.546;2024-01-10T02:14:12;23.70;;;8.40;;
54454;SDS011;40364;52.270;10.546;2024-01-10T02:16:39;22.67;;;8.43;;
54454;SDS011;40364;52.270;10.546;2024-01-10T02:19:17;25.88;;;9.10;;
54454;SDS011;40364;52.270;10.546;2024-01-10T02:21:46;26.83;;;9.38;;
54454;SDS011;40364;52.270;10.546;2024-01-10T02:24:12;24.45;;;7.38;;
54454;SDS011;40364;52.270;10.546;2024-01-10T02:26:40;20.77;;;8.48;;
54454;SDS011;40364;52.270;10.546;2024-01-10T02:29:08;27.38;;;9.25;;
54454;SDS011;40364;52.270;10.546;2024-01-10T02:31:34;21.67;;;8.48;;
54454;SDS011;40364;52.270;10.546;2024-01-10T02:34:01;21.27;;;9.23;;
54454;SDS011;40364;52.270;10.546;2024-01-10T02:36:28;22.77;;;9.10;;
54454;SDS011;40364;52.270;10.546;2024-01-10T02:38:54;19.00;;;7.22;;
54454;SDS011;40364;52.270;10.546;2024-01-10T02:41:21;19.73;;;8.68;;
54454;SDS011;40364;52.270;10.546;2024-01-10T02:43:49;27.10;;;8.65;;
54454;SDS011;40364;52.270;10.546;2024-01-10T02:46:16;19.23;;;8.65;;
54454;SDS011;40364;52.270;10.546;2024-01-10T02:48:44;27.67;;;10.10;;
54454;SDS011;40364;52.270;10.546;2024-01-10T02:51:10;24.63;;;9.98;;
54454;SDS011;40364;52.270;10.546;2024-01-10T02:53:37;31.65;;;9.93;;
54454;SDS011;40364;52.270;10.546;2024-01-10T02:56:04;25.27;;;9.18;;
54454;SDS011;40364;52.270;10.546;2024-01-10T02:58:31;27.10;;;10.18;;
54454;SDS011;40364;52.270;10.546;2024-01-10T03:00:59;23.55;;;8.88;;
54454;SDS011;40364;52.270;10.546;2024-01-10T03:03:26;33.28;;;10.63;;
54454;SDS011;40364;52.270;10.546;2024-01-10T03:05:53;30.83;;;10.23;;
54454;SDS011;40364;52.270;10.546;2024-01-10T03:08:19;21.60;;;9.15;;
54454;SDS011;40364;52.270;10.546;2024-01-10T03:10:46;22.77;;;9.68;;
54454;SDS011;40364;52.270;10.546;2024-01-10T03:13:13;28.23;;;9.85;;
54454;SDS011;40364;52.270;10.546;2024-01-10T03:15:39;25.42;;;9.98;;
54454;SDS011;40364;52.270;10.546;2024-01-10T03:18:08;27.95;;;10.32;;
54454;SDS011;40364;52.270;10.546;2024-01-10T03:20:34;27.35;;;11.15;;
54454;SDS011;40364;52.270;10.546;2024-01-10T03:23:01;32.80;;;11.35;;
54454;SDS011;40364;52.270;10.546;2024-01-10T03:25:27;28.95;;;10.50;;
54454;SDS011;40364;52.270;10.546;2024-01-10T03:27:54;27.73;;;11.10;;
54454;SDS011;40364;52.270;10.546;2024-01-10T03:30:21;28.90;;;10.43;;
54454;SDS011;40364;52.270;10.546;2024-01-10T03:32:49;25.08;;;10.00;;
54454;SDS011;40364;52.270;10.546;2024-01-10T03:35:17;26.00;;;10.82;;
54454;SDS011;40364;52.270;10.546;2024-01-10T03:37:44;29.98;;;11.32;;
54454;SDS011;40364;52.270;10.546;2024-01-10T03:40:11;31.20;;;11.60;;
54454;SDS011;40364;52.270;10.546;2024-01-10T03:42:37;30.27;;;10.73;;
54454;SDS011;40364;52.270;10.546;2024-01-10T03:45:04;34.75;;;12.05;;
54454;SDS011;40364;52.270;10.546;2024-01-10T03:47:32;35.28;;;12.10;;
54454;SDS011;40364;52.270;10.546;2024-01-10T03:49:58;30.58;;;10.27;;
54454;SDS011;40364;52.270;10.546;2024-01-10T03:52:26;27.75;;;10.95;;
54454;SDS011;40364;52.270;10.546;2024-01-10T03:54:53;37.50;;;13.00;;
54454;SDS011;40364;52.270;10.546;2024-01-10T03:59:51;27.20;;;11.05;;
54454;SDS011;40364;52.270;10.546;2024-01-10T04:02:18;26.77;;;11.55;;
54454;SDS011;40364;52.270;10.546;2024-01-10T04:04:45;30.00;;;11.98;;
54454;SDS011;40364;52.270;10.546;2024-01-10T04:07:15;28.42;;;11.15;;
54454;SDS011;40364;52.270;10.546;2024-01-10T04:09:43;32.35;;;11.07;;
54454;SDS011;40364;52.270;10.546;2024-01-10T04:12:10;28.10;;;10.90;;
54454;SDS011;40364;52.270;10.546;2024-01-10T04:14:37;33.67;;;11.10;;
54454;SDS011;40364;52.270;10.546;2024-01-10T04:17:04;32.50;;;11.23;;
54454;SDS011;40364;52.270;10.546;2024-01-10T04:19:32;38.97;;;11.85;;
54454;SDS011;40364;52.270;10.546;2024-01-10T04:21:59;39.90;;;12.38;;
54454;SDS011;40364;52.270;10.546;2024-01-10T04:24:25;36.22;;;12.07;;
54454;SDS011;40364;52.270;10.546;2024-01-10T04:26:54;29.02;;;11.70;;
54454;SDS011;40364;52.270;10.546;2024-01-10T04:29:24;32.10;;;12.13;;
54454;SDS011;40364;52.270;10.546;2024-01-10T04:31:53;35.50;;;13.23;;
54454;SDS011;40364;52.270;10.546;2024-01-10T04:34:20;31.90;;;11.82;;
54454;SDS011;40364;52.270;10.546;2024-01-10T04:36:48;32.63;;;12.63;;
54454;SDS011;40364;52.270;10.546;2024-01-10T04:39:18;37.70;;;13.05;;
54454;SDS011;40364;52.270;10.546;2024-01-10T04:42:09;33.75;;;12.80;;
54454;SDS011;40364;52.270;10.546;2024-01-10T04:44:39;39.22;;;13.30;;
54454;SDS011;40364;52.270;10.546;2024-01-10T04:47:06;33.30;;;12.52;;
54454;SDS011;40364;52.270;10.546;2024-01-10T04:49:35;30.17;;;11.73;;
54454;SDS011;40364;52.270;10.546;2024-01-10T04:52:06;41.17;;;11.85;;
54454;SDS011;40364;52.270;10.546;2024-01-10T04:54:47;34.65;;;12.73;;
54454;SDS011;40364;52.270;10.546;2024-01-10T04:57:19;31.23;;;12.50;;
54454;SDS011;40364;52.270;10.546;2024-01-10T04:59:47;33.65;;;12.38;;
54454;SDS011;40364;52.270;10.546;2024-01-10T05:02:14;27.50;;;13.13;;
54454;SDS011;40364;52.270;10.546;2024-01-10T05:04:41;39.20;;;12.93;;
54454;SDS011;40364;52.270;10.546;2024-01-10T05:07:13;32.03;;;12.20;;
54454;SDS011;40364;52.270;10.546;2024-01-10T05:09:42;36.20;;;12.68;;
54454;SDS011;40364;52.270;10.546;2024-01-10T05:12:14;35.95;;;13.95;;
54454;SDS011;40364;52.270;10.546;2024-01-10T05:14:43;35.60;;;12.40;;
54454;SDS011;40364;52.270;10.546;2024-01-10T05:17:13;37.80;;;13.40;;
54454;SDS011;40364;52.270;10.546;2024-01-10T05:19:40;35.00;;;13.77;;
54454;SDS011;40364;52.270;10.546;2024-01-10T05:22:11;35.97;;;12.77;;
54454;SDS011;40364;52.270;10.546;2024-01-10T05:24:38;34.97;;;12.18;;
54454;SDS011;40364;52.270;10.546;2024-01-10T05:27:05;35.95;;;13.65;;
54454;SDS011;40364;52.270;10.546;2024-01-10T05:29:33;36.83;;;12.98;;
54454;SDS011;40364;52.270;10.546;2024-01-10T05:32:08;34.70;;;12.05;;
54454;SDS011;40364;52.270;10.546;2024-01-10T05:34:47;35.30;;;13.25;;
54454;SDS011;40364;52.270;10.546;2024-01-10T05:37:35;31.48;;;13.43;;
54454;SDS011;40364;52.270;10.546;2024-01-10T05:40:04;31.13;;;12.57;;
54454;SDS011;40364;52.270;10.546;2024-01-10T05:42:32;31.65;;;12.65;;
54454;SDS011;40364;52.270;10.546;2024-01-10T05:45:00;36.40;;;13.35;;
54454;SDS011;40364;52.270;10.546;2024-01-10T05:50:16;44.13;;;14.13;;
54454;SDS011;40364;52.270;10.546;2024-01-10T05:52:44;39.20;;;13.93;;
54454;SDS011;40364;52.270;10.546;2024-01-10T05:55:22;37.53;;;12.60;;
54454;SDS011;40364;52.270;10.546;2024-01-10T05:57:56;35.65;;;13.35;;
54454;SDS011;40364;52.270;10.546;2024-01-10T06:00:22;42.15;;;13.13;;
54454;SDS011;40364;52.270;10.546;2024-01-10T06:06:22;35.35;;;14.00;;
54454;SDS011;40364;52.270;10.546;2024-01-10T06:08:50;37.63;;;13.30;;
54454;SDS011;40364;52.270;10.546;2024-01-10T06:11:17;33.38;;;12.77;;
54454;SDS011;40364;52.270;10.546;2024-01-10T06:13:45;35.85;;;14.40;;
54454;SDS011;40364;52.270;10.546;2024-01-10T06:16:12;37.97;;;14.88;;
54454;SDS011;40364;52.270;10.546;2024-01-10T06:18:42;39.63;;;13.43;;
54454;SDS011;40364;52.270;10.546;2024-01-10T06:21:10;38.38;;;14.50;;
54454;SDS011;40364;52.270;10.546;2024-01-10T06:23:49;39.47;;;13.73;;
54454;SDS011;40364;52.270;10.546;2024-01-10T06:26:18;36.97;;;14.27;;
54454;SDS011;40364;52.270;10.546;2024-01-10T06:29:00;44.75;;;14.15;;
54454;SDS011;40364;52.270;10.546;2024-01-10T06:31:35;36.60;;;13.50;;
54454;SDS011;40364;52.270;10.546;2024-01-10T06:34:14;32.42;;;12.27;;
54454;SDS011;40364;52.270;10.546;2024-01-10T06:36:44;32.20;;;13.02;;
54454;SDS011;40364;52.270;10.546;2024-01-10T06:39:10;36.70;;;13.10;;
54454;SDS011;40364;52.270;10.546;2024-01-10T06:41:38;45.42;;;13.27;;
54454;SDS011;40364;52.270;10.546;2024-01-10T06:44:10;40.25;;;13.48;;
54454;SDS011;40364;52.270;10.546;2024-01-10T06:46:37;29.20;;;11.73;;
54454;SDS011;40364;52.270;10.546;2024-01-10T06:49:11;43.85;;;14.70;;
54454;SDS011;40364;52.270;10.546;2024-01-10T06:51:38;43.17;;;13.75;;
54454;SDS011;40364;52.270;10.546;2024-01-10T06:54:05;40.63;;;12.68;;
54454;SDS011;40364;52.270;10.546;2024-01-10T06:56:40;42.50;;;13.82;;
54454;SDS011;40364;52.270;10.546;2024-01-10T06:59:07;36.85;;;14.38;;
54454;SDS011;40364;52.270;10.546;2024-01-10T07:01:36;42.80;;;15.57;;
54454;SDS011;40364;52.270;10.546;2024-01-10T07:04:04;39.47;;;14.05;;
54454;SDS011;40364;52.270;10.546;2024-01-10T07:06:36;47.42;;;15.35;;
54454;SDS011;40364;52.270;10.546;2024-01-10T07:09:04;38.25;;;14.02;;
54454;SDS011;40364;52.270;10.546;2024-01-10T07:11:36;42.83;;;14.77;;
54454;SDS011;40364;52.270;10.546;2024-01-10T07:14:14;41.50;;;15.27;;
54454;SDS011;40364;52.270;10.546;2024-01-10T07:16:55;46.67;;;14.23;;
54454;SDS011;40364;52.270;10.546;2024-01-10T07:19:36;38.58;;;15.10;;
54454;SDS011;40364;52.270;10.546;2024-01-10T07:22:05;45.35;;;15.18;;
54454;SDS011;40364;52.270;10.546;2024-01-10T07:24:44;39.70;;;15.15;;
54454;SDS011;40364;52.270;10.546;2024-01-10T07:27:11;39.95;;;15.73;;
54454;SDS011;40364;52.270;10.546;2024-01-10T07:29:39;45.88;;;15.10;;
54454;SDS011;40364;52.270;10.546;2024-01-10T07:32:07;46.60;;;15.68;;
54454;SDS011;40364;52.270;10.546;2024-01-10T07:34:46;41.10;;;14.30;;
54454;SDS011;40364;52.270;10.546;2024-01-10T07:37:49;43.45;;;15.82;;
54454;SDS011;40364;52.270;10.546;2024-01-10T07:40:24;45.78;;;15.32;;
54454;SDS011;40364;52.270;10.546;2024-01-10T07:42:54;42.72;;;16.38;;
54454;SDS011;40364;52.270;10.546;2024-01-10T07:45:23;37.35;;;15.30;;
54454;SDS011;40364;52.270;10.546;2024-01-10T07:47:55;38.30;;;16.02;;
54454;SDS011;40364;52.270;10.546;2024-01-10T07:50:22;40.88;;;16.25;;
54454;SDS011;40364;52.270;10.546;2024-01-10T07:52:54;41.35;;;15.68;;
54454;SDS011;40364;52.270;10.546;2024-01-10T07:55:29;42.17;;;15.80;;
54454;SDS011;40364;52.270;10.546;2024-01-10T07:57:58;47.45;;;16.55;;
54454;SDS011;40364;52.270;10.546;2024-01-10T08:03:13;37.15;;;14.27;;
54454;SDS011;40364;52.270;10.546;2024-01-10T08:05:44;44.85;;;16.80;;
54454;SDS011;40364;52.270;10.546;2024-01-10T08:11:25;56.35;;;16.85;;
54454;SDS011;40364;52.270;10.546;2024-01-10T08:13:54;52.95;;;17.55;;
54454;SDS011;40364;52.270;10.546;2024-01-10T08:16:35;48.13;;;16.25;;
54454;SDS011;40364;52.270;10.546;2024-01-10T08:19:01;45.25;;;16.20;;
54454;SDS011;40364;52.270;10.546;2024-01-10T08:21:29;40.78;;;15.38;;
54454;SDS011;40364;52.270;10.546;2024-01-10T08:23:56;51.08;;;17.98;;
54454;SDS011;40364;52.270;10.546;2024-01-10T08:26:27;55.58;;;16.02;;
54454;SDS011;40364;52.270;10.546;2024-01-10T08:28:55;46.58;;;15.90;;
54454;SDS011;40364;52.270;10.546;2024-01-10T08:31:27;49.55;;;16.20;;
54454;SDS011;40364;52.270;10.546;2024-01-10T08:33:54;40.72;;;15.60;;
54454;SDS011;40364;52.270;10.546;2024-01-10T08:36:21;54.17;;;16.95;;
54454;SDS011;40364;52.270;10.546;2024-01-10T08:39:01;46.35;;;16.00;;
54454;SDS011;40364;52.270;10.546;2024-01-10T08:41:30;44.55;;;16.48;;
54454;SDS011;40364;52.270;10.546;2024-01-10T08:43:57;52.53;;;19.38;;
54454;SDS011;40364;52.270;10.546;2024-01-10T08:46:25;42.28;;;16.98;;
54454;SDS011;40364;52.270;10.546;2024-01-10T08:48:52;45.00;;;16.92;;
54454;SDS011;40364;52.270;10.546;2024-01-10T08:51:20;51.65;;;17.60;;
54454;SDS011;40364;52.270;10.546;2024-01-10T08:56:44;42.65;;;15.65;;
54454;SDS011;40364;52.270;10.546;2024-01-10T08:59:15;47.05;;;16.25;;
54454;SDS011;40364;52.270;10.546;2024-01-10T09:01:43;56.33;;;17.35;;
54454;SDS011;40364;52.270;10.546;2024-01-10T09:04:12;49.10;;;18.88;;
54454;SDS011;40364;52.270;10.546;2024-01-10T09:06:53;50.70;;;16.50;;
54454;SDS011;40364;52.270;10.546;2024-01-10T09:09:20;57.55;;;16.80;;
54454;SDS011;40364;52.270;10.546;2024-01-10T09:11:59;47.90;;;17.60;;
54454;SDS011;40364;52.270;10.546;2024-01-10T09:14:38;49.92;;;17.85;;
54454;SDS011;40364;52.270;10.546;2024-01-10T09:17:05;49.50;;;17.80;;
54454;SDS011;40364;52.270;10.546;2024-01-10T09:19:35;50.22;;;17.08;;
54454;SDS011;40364;52.270;10.546;2024-01-10T09:22:02;48.90;;;17.15;;
54454;SDS011;40364;52.270;10.546;2024-01-10T09:24:49;47.20;;;16.30;;
54454;SDS011;40364;52.270;10.546;2024-01-10T09:27:19;46.85;;;17.27;;
54454;SDS011;40364;52.270;10.546;2024-01-10T09:30:00;52.10;;;17.67;;
54454;SDS011;40364;52.270;10.546;2024-01-10T09:32:40;44.67;;;17.27;;
54454;SDS011;40364;52.270;10.546;2024-01-10T09:35:08;48.65;;;18.60;;
54454;SDS011;40364;52.270;10.546;2024-01-10T09:37:36;46.22;;;16.27;;
54454;SDS011;40364;52.270;10.546;2024-01-10T09:40:03;51.22;;;17.58;;
54454;SDS011;40364;52.270;10.546;2024-01-10T09:42:36;41.55;;;17.45;;
54454;SDS011;40364;52.270;10.546;2024-01-10T09:45:04;53.40;;;18.15;;
54454;SDS011;40364;52.270;10.546;2024-01-10T09:47:33;50.10;;;18.45;;
54454;SDS011;40364;52.270;10.546;2024-01-10T09:50:02;53.55;;;20.10;;
54454;SDS011;40364;52.270;10.546;2024-01-10T09:52:29;50.15;;;18.50;;
54454;SDS011;40364;52.270;10.546;2024-01-10T09:55:05;45.97;;;18.30;;
54454;SDS011;40364;52.270;10.546;2024-01-10T09:57:40;47.17;;;18.05;;
54454;SDS011;40364;52.270;10.546;2024-01-10T10:00:14;51.60;;;18.48;;
54454;SDS011;40364;52.270;10.546;2024-01-10T10:02:42;48.95;;;18.38;;
54454;SDS011;40364;52.270;10.546;2024-01-10T10:05:13;54.00;;;16.75;;
54454;SDS011;40364;52.270;10.546;2024-01-10T10:07:43;48.35;;;18.92;;
54454;SDS011;40364;52.270;10.546;2024-01-10T10:10:11;46.13;;;18.55;;
54454;SDS011;40364;52.270;10.546;2024-01-10T10:12:45;48.28;;;18.33;;
54454;SDS011;40364;52.270;10.546;2024-01-10T10:15:17;49.78;;;18.50;;
54454;SDS011;40364;52.270;10.546;2024-01-10T10:17:47;53.55;;;19.08;;
54454;SDS011;40364;52.270;10.546;2024-01-10T10:20:34;45.40;;;16.45;;
54454;SDS011;40364;52.270;10.546;2024-01-10T10:23:03;30.42;;;14.07;;
54454;SDS011;40364;52.270;10.546;2024-01-10T10:25:30;29.80;;;12.38;;
54454;SDS011;40364;52.270;10.546;2024-01-10T10:27:59;43.67;;;15.05;;
54454;SDS011;40364;52.270;10.546;2024-01-10T10:30:27;11.45;;;7.43;;
54454;SDS011;40364;52.270;10.546;2024-01-10T10:32:54;17.90;;;8.95;;
54454;SDS011;40364;52.270;10.546;2024-01-10T10:35:21;26.23;;;8.25;;
54454;SDS011;40364;52.270;10.546;2024-01-10T10:37:48;45.67;;;15.45;;
54454;SDS011;40364;52.270;10.546;2024-01-10T10:40:16;29.02;;;13.38;;
54454;SDS011;40364;52.270;10.546;2024-01-10T10:42:45;43.45;;;15.07;;
54454;SDS011;40364;52.270;10.546;2024-01-10T10:45:18;44.63;;;16.85;;
54454;SDS011;40364;52.270;10.546;2024-01-10T10:47:58;50.92;;;14.77;;
54454;SDS011;40364;52.270;10.546;2024-01-10T10:51:03;39.72;;;15.63;;
54454;SDS011;40364;52.270;10.546;2024-01-10T10:53:34;41.13;;;15.60;;
54454;SDS011;40364;52.270;10.546;2024-01-10T10:56:03;49.25;;;16.05;;
54454;SDS011;40364;52.270;10.546;2024-01-10T10:58:34;33.70;;;14.98;;
54454;SDS011;40364;52.270;10.546;2024-01-10T11:01:05;45.50;;;16.27;;
54454;SDS011;40364;52.270;10.546;2024-01-10T11:03:34;45.97;;;18.13;;
54454;SDS011;40364;52.270;10.546;2024-01-10T11:06:02;47.45;;;17.75;;
54454;SDS011;40364;52.270;10.546;2024-01-10T11:08:30;49.58;;;17.92;;
54454;SDS011;40364;52.270;10.546;2024-01-10T11:11:02;49.22;;;16.70;;
54454;SDS011;40364;52.270;10.546;2024-01-10T11:13:37;45.28;;;16.38;;
54454;SDS011;40364;52.270;10.546;2024-01-10T11:16:22;46.80;;;17.15;;
54454;SDS011;40364;52.270;10.546;2024-01-10T11:19:24;49.65;;;17.25;;
54454;SDS011;40364;52.270;10.546;2024-01-10T11:22:13;43.95;;;16.42;;
54454;SDS011;40364;52.270;10.546;2024-01-10T11:24:51;45.28;;;16.85;;
54454;SDS011;40364;52.270;10.546;2024-01-10T11:27:18;44.28;;;17.25;;
54454;SDS011;40364;52.270;10.546;2024-01-10T11:29:45;42.92;;;17.70;;
54454;SDS011;40364;52.270;10.546;2024-01-10T11:32:15;48.05;;;16.45;;
54454;SDS011;40364;52.270;10.546;2024-01-10T11:34:49;49.55;;;18.02;;
54454;SDS011;40364;52.270;10.546;2024-01-10T11:37:20;48.35;;;17.65;;
54454;SDS011;40364;52.270;10.546;2024-01-10T11:39:47;43.80;;;17.75;;
54454;SDS011;40364;52.270;10.546;2024-01-10T11:42:21;44.13;;;17.13;;
54454;SDS011;40364;52.270;10.546;2024-01-10T11:44:48;48.72;;;17.42;;
54454;SDS011;40364;52.270;10.546;2024-01-10T11:47:17;51.20;;;19.15;;
54454;SDS011;40364;52.270;10.546;2024-01-10T11:49:55;38.40;;;16.55;;
54454;SDS011;40364;52.270;10.546;2024-01-10T11:52:32;43.65;;;17.05;;
54454;SDS011;40364;52.270;10.546;2024-01-10T11:55:07;42.85;;;16.45;;
54454;SDS011;40364;52.270;10.546;2024-01-10T11:57:34;42.38;;;17.23;;
54454;SDS011;40364;52.270;10.546;2024-01-10T12:00:02;45.28;;;18.40;;
54454;SDS011;40364;52.270;10.546;2024-01-10T12:02:34;42.90;;;17.20;;
54454;SDS011;40364;52.270;10.546;2024-01-10T12:05:01;50.63;;;19.27;;
54454;SDS011;40364;52.270;10.546;2024-01-10T12:07:29;40.65;;;17.73;;
54454;SDS011;40364;52.270;10.546;2024-01-10T12:09:55;51.13;;;18.35;;
54454;SDS011;40364;52.270;10.546;2024-01-10T12:12:22;44.35;;;17.73;;
54454;SDS011;40364;52.270;10.546;2024-01-10T12:14:50;43.83;;;16.63;;
54454;SDS011;40364;52.270;10.546;2024-01-10T12:17:16;40.63;;;17.15;;
54454;SDS011;40364;52.270;10.546;2024-01-10T12:19:45;43.97;;;16.63;;
54454;SDS011;40364;52.270;10.546;2024-01-10T12:29:23;38.97;;;13.27;;
54454;SDS011;40364;52.270;10.546;2024-01-10T12:32:07;37.55;;;16.02;;
54454;SDS011;40364;52.270;10.546;2024-01-10T12:34:49;48.42;;;16.65;;
54454;SDS011;40364;52.270;10.546;2024-01-10T12:37:20;38.50;;;15.70;;
54454;SDS011;40364;52.270;10.546;2024-01-10T12:39:47;38.70;;;15.40;;
54454;SDS011;40364;52.270;10.546;2024-01-10T12:42:15;40.95;;;15.77;;
54454;SDS011;40364;52.270;10.546;2024-01-10T12:44:43;49.55;;;18.00;;
54454;SDS011;40364;52.270;10.546;2024-01-10T12:47:17;58.17;;;18.20;;
54454;SDS011;40364;52.270;10.546;2024-01-10T12:49:44;46.20;;;18.45;;
54454;SDS011;40364;52.270;10.546;2024-01-10T12:52:12;41.53;;;17.25;;
54454;SDS011;40364;52.270;10.546;2024-01-10T12:54:39;52.35;;;18.10;;
54454;SDS011;40364;52.270;10.546;2024-01-10T12:57:07;43.35;;;18.10;;
54454;SDS011;40364;52.270;10.546;2024-01-10T12:59:33;43.80;;;18.40;;
54454;SDS011;40364;52.270;10.546;2024-01-10T13:02:00;50.22;;;19.65;;
54454;SDS011;40364;52.270;10.546;2024-01-10T13:04:27;41.95;;;18.65;;
54454;SDS011;40364;52.270;10.546;2024-01-10T13:06:54;47.60;;;19.40;;
54454;SDS011;40364;52.270;10.546;2024-01-10T13:12:42;45.85;;;18.27;;
54454;SDS011;40364;52.270;10.546;2024-01-10T13:15:10;48.65;;;18.35;;
54454;SDS011;40364;52.270;10.546;2024-01-10T13:17:36;41.90;;;18.92;;
54454;SDS011;40364;52.270;10.546;2024-01-10T13:20:03;45.55;;;18.58;;
54454;SDS011;40364;52.270;10.546;2024-01-10T13:22:31;42.03;;;19.83;;
54454;SDS011;40364;52.270;10.546;2024-01-10T13:24:58;48.50;;;19.33;;
54454;SDS011;40364;52.270;10.546;2024-01-10T13:27:24;46.88;;;19.65;;
54454;SDS011;40364;52.270;10.546;2024-01-10T13:29:52;44.20;;;19.65;;
54454;SDS011;40364;52.270;10.546;2024-01-10T13:32:19;51.33;;;19.98;;
54454;SDS011;40364;52.270;10.546;2024-01-10T13:36:19;48.58;;;18.75;;
54454;SDS011;40364;52.270;10.546;2024-01-10T13:38:38;44.80;;;18.92;;
54454;SDS011;40364;52.270;10.546;2024-01-10T13:41:17;46.55;;;16.70;;
54454;SDS011;40364;52.270;10.546;2024-01-10T13:44:22;53.13;;;18.45;;
54454;SDS011;40364;52.270;10.546;2024-01-10T13:47:06;42.50;;;17.23;;
54454;SDS011;40364;52.270;10.546;2024-01-10T13:49:33;43.58;;;17.77;;
54454;SDS011;40364;52.270;10.546;2024-01-10T13:51:59;47.95;;;16.95;;
54454;SDS011;40364;52.270;10.546;2024-01-10T13:54:26;46.55;;;17.83;;
54454;SDS011;40364;52.270;10.546;2024-01-10T13:56:52;54.28;;;18.30;;
54454;SDS011;40364;52.270;10.546;2024-01-10T13:59:20;46.72;;;17.02;;
54454;SDS011;40364;52.270;10.546;2024-01-10T14:01:47;56.05;;;18.50;;
54454;SDS011;40364;52.270;10.546;2024-01-10T14:04:15;45.97;;;17.10;;
54454;SDS011;40364;52.270;10.546;2024-01-10T14:06:42;44.17;;;17.73;;
54454;SDS011;40364;52.270;10.546;2024-01-10T14:09:09;47.00;;;17.15;;
54454;SDS011;40364;52.270;10.546;2024-01-10T14:11:36;55.80;;;19.42;;
54454;SDS011;40364;52.270;10.546;2024-01-10T14:14:03;52.30;;;19.63;;
54454;SDS011;40364;52.270;10.546;2024-01-10T14:16:30;45.53;;;17.17;;
54454;SDS011;40364;52.270;10.546;2024-01-10T14:18:56;42.15;;;17.90;;
54454;SDS011;40364;52.270;10.546;2024-01-10T14:21:25;60.20;;;19.73;;
54454;SDS011;40364;52.270;10.546;2024-01-10T14:23:52;52.03;;;18.88;;
54454;SDS011;40364;52.270;10.546;2024-01-10T14:26:19;58.95;;;20.17;;
54454;SDS011;40364;52.270;10.546;2024-01-10T14:28:46;48.85;;;19.95;;
54454;SDS011;40364;52.270;10.546;2024-01-10T14:31:12;42.17;;;17.40;;
54454;SDS011;40364;52.270;10.546;2024-01-10T14:33:40;49.78;;;18.75;;
54454;SDS011;40364;52.270;10.546;2024-01-10T14:36:06;58.75;;;20.13;;
54454;SDS011;40364;52.270;10.546;2024-01-10T14:38:34;44.00;;;18.40;;
54454;SDS011;40364;52.270;10.546;2024-01-10T14:41:03;46.08;;;17.98;;
54454;SDS011;40364;52.270;10.546;2024-01-10T14:43:30;46.33;;;19.15;;
54454;SDS011;40364;52.270;10.546;2024-01-10T14:45:57;46.53;;;18.90;;
54454;SDS011;40364;52.270;10.546;2024-01-10T14:48:23;46.95;;;16.60;;
54454;SDS011;40364;52.270;10.546;2024-01-10T14:50:50;51.42;;;18.35;;
54454;SDS011;40364;52.270;10.546;2024-01-10T14:53:17;49.05;;;17.73;;
54454;SDS011;40364;52.270;10.546;2024-01-10T14:58:36;51.85;;;18.23;;
54454;SDS011;40364;52.270;10.546;2024-01-10T15:01:09;41.78;;;16.85;;